Time;durP1;ratioP1;P1;durP2;ratioP2;P2;SDS_P1;SDS_P2;PMS_P1;PMS_P2;Temp;Humidity;BMP_temperature;BMP_pressure;BME280_temperature;BME280_humidity;BME280_pressure;Samples;Min_cycle;Max_cycle;Signal;HPM_P1;HPM_P2
2023/09/20 00:00:08;;;;;;;4.00;2.20;;;;;;;15.73;70.30;99414.84;5049393;28;20246;-78
2023/09/20 00:02:36;;;;;;;2.65;1.77;;;;;;;15.72;70.15;99418.47;5042576;28;20228;-78
2023/09/20 00:05:01;;;;;;;2.22;1.70;;;;;;;15.73;70.22;99412.19;5043653;28;20204;-77
2023/09/20 00:07:27;;;;;;;3.40;1.83;;;;;;;15.75;70.24;99419.03;5042220;28;20579;-78
2023/09/20 00:09:52;;;;;;;3.70;1.40;;;;;;;15.75;70.07;99428.78;5045778;28;20208;-78
2023/09/20 00:12:18;;;;;;;2.73;1.70;;;;;;;15.75;70.11;99420.84;5043123;28;20218;-78
2023/09/20 00:14:44;;;;;;;2.33;1.90;;;;;;;15.74;70.05;99416.50;5048730;28;20200;-78
2023/09/20 00:17:09;;;;;;;2.93;1.70;;;;;;;15.74;70.09;99413.84;5042583;28;20210;-78
2023/09/20 00:19:38;;;;;;;3.43;1.60;;;;;;;15.77;70.17;99414.44;5037918;28;20219;-78
2023/09/20 00:22:04;;;;;;;3.35;1.85;;;;;;;15.82;69.90;99408.72;5044144;28;20691;-78
2023/09/20 00:24:30;;;;;;;1.58;1.45;;;;;;;15.85;69.94;99401.34;5040946;28;20203;-78
2023/09/20 00:26:56;;;;;;;2.50;1.63;;;;;;;15.84;69.76;99404.13;5045295;28;20286;-78
2023/09/20 00:29:24;;;;;;;5.57;1.97;;;;;;;15.78;69.79;99396.75;5044436;28;20623;-78
2023/09/20 00:31:50;;;;;;;2.80;2.07;;;;;;;15.75;70.05;99404.97;5046470;28;20219;-78
2023/09/20 00:34:17;;;;;;;5.07;2.07;;;;;;;15.77;69.88;99408.28;5022464;28;21101;-78
2023/09/20 00:36:44;;;;;;;3.50;2.10;;;;;;;15.80;70.30;99408.03;5040738;28;20427;-78
2023/09/20 00:39:10;;;;;;;4.07;2.20;;;;;;;15.81;70.16;99401.75;5041039;28;20333;-78
2023/09/20 00:41:36;;;;;;;3.17;2.13;;;;;;;15.79;69.98;99395.75;5041968;28;20189;-78
2023/09/20 00:44:02;;;;;;;7.23;2.30;;;;;;;15.72;70.07;99400.78;5039247;28;20627;-78
2023/09/20 00:46:29;;;;;;;2.07;1.90;;;;;;;15.67;70.15;99397.66;5039351;28;20196;-77
2023/09/20 00:48:56;;;;;;;2.88;2.00;;;;;;;15.58;70.38;99399.31;5040442;28;20865;-78
2023/09/20 00:51:23;;;;;;;1.92;1.70;;;;;;;15.51;70.50;99392.03;5039480;28;20657;-77
2023/09/20 00:53:52;;;;;;;2.55;2.08;;;;;;;15.50;70.49;99393.84;5038273;28;20277;-78
2023/09/20 00:56:18;;;;;;;2.20;1.60;;;;;;;15.52;70.39;99389.22;5038612;28;20683;-78
2023/09/20 00:58:45;;;;;;;4.70;1.73;;;;;;;15.57;70.54;99399.44;5045535;28;20208;-77
2023/09/20 01:01:10;;;;;;;1.88;1.42;;;;;;;15.61;70.34;99390.25;5019514;28;20520;-78
2023/09/20 01:03:36;;;;;;;2.00;1.80;;;;;;;15.64;70.09;99396.13;5043080;28;20191;-77
2023/09/20 01:06:08;;;;;;;1.98;1.70;;;;;;;15.64;70.10;99390.00;5026653;28;20200;-78
2023/09/20 01:08:33;;;;;;;3.40;2.08;;;;;;;15.62;70.12;99391.91;5041594;28;20227;-78
2023/09/20 01:11:00;;;;;;;2.10;1.37;;;;;;;15.61;69.94;99396.38;5020982;28;20262;-78
2023/09/20 01:13:25;;;;;;;3.35;1.80;;;;;;;15.60;69.95;99397.34;5039765;28;20375;-78
2023/09/20 01:15:52;;;;;;;3.88;2.13;;;;;;;15.58;69.96;99396.66;5042686;28;20206;-78
2023/09/20 01:18:18;;;;;;;4.28;2.70;;;;;;;15.54;70.08;99389.13;5039202;28;20700;-78
2023/09/20 01:20:44;;;;;;;3.80;1.70;;;;;;;15.51;70.16;99392.03;5039450;28;20211;-78
2023/09/20 01:23:09;;;;;;;2.60;1.60;;;;;;;15.50;70.25;99391.19;5038289;28;20201;-77
2023/09/20 01:25:40;;;;;;;2.93;1.60;;;;;;;15.48;70.16;99398.44;5040589;28;20459;-78
2023/09/20 01:28:09;;;;;;;1.77;1.67;;;;;;;15.47;70.29;99392.31;5015833;28;20190;-78
2023/09/20 01:30:37;;;;;;;2.88;1.75;;;;;;;15.50;70.50;99391.19;5044335;28;20589;-78
2023/09/20 01:33:06;;;;;;;2.90;1.70;;;;;;;15.53;70.35;99400.66;5041587;28;20214;-78
2023/09/20 01:35:32;;;;;;;3.00;2.00;;;;;;;15.58;70.27;99385.22;5038641;28;20617;-77
2023/09/20 01:37:58;;;;;;;2.70;1.60;;;;;;;15.60;70.14;99386.75;5037853;28;20207;-77
2023/09/20 01:40:26;;;;;;;3.20;1.80;;;;;;;15.62;69.98;99384.81;5035237;28;20759;-77
2023/09/20 01:42:58;;;;;;;3.67;1.90;;;;;;;15.59;70.05;99382.44;5037182;28;20234;-78
2023/09/20 01:45:24;;;;;;;1.65;1.55;;;;;;;15.54;70.08;99383.81;5023244;28;20679;-77
2023/09/20 01:47:52;;;;;;;3.30;2.30;;;;;;;15.51;70.08;99384.09;5018881;28;20709;-78
2023/09/20 01:50:20;;;;;;;3.70;2.30;;;;;;;15.47;70.21;99375.56;5030719;28;20439;-78
2023/09/20 01:52:49;;;;;;;3.15;1.73;;;;;;;15.44;70.33;99381.13;5039699;28;20211;-77
2023/09/20 01:55:22;;;;;;;3.95;3.30;;;;;;;15.37;70.55;99370.25;5044095;28;20767;-78
2023/09/20 01:57:50;;;;;;;1.88;1.55;;;;;;;15.30;70.67;99374.41;5042680;28;20198;-78
2023/09/20 02:00:36;;;;;;;2.00;1.70;;;;;;;15.20;70.94;99376.16;5020331;28;20941;-78
2023/09/20 02:03:16;;;;;;;5.93;3.05;;;;;;;15.08;71.01;99364.84;5039461;28;20186;-78
2023/09/20 02:05:44;;;;;;;3.83;2.25;;;;;;;15.00;71.19;99369.94;5023206;28;20215;-77
2023/09/20 02:08:09;;;;;;;4.00;2.08;;;;;;;14.96;71.59;99371.16;5043082;28;20231;-77
2023/09/20 02:10:39;;;;;;;2.50;1.60;;;;;;;14.92;71.50;99365.31;5042954;28;20688;-77
2023/09/20 02:13:06;;;;;;;2.00;1.80;;;;;;;14.89;71.65;99364.75;5044065;28;20761;-77
2023/09/20 02:15:35;;;;;;;4.95;2.42;;;;;;;14.88;71.83;99363.06;5036322;28;20538;-77
2023/09/20 02:18:08;;;;;;;2.65;2.08;;;;;;;14.89;71.59;99368.22;5033966;28;20197;-77
2023/09/20 02:20:36;;;;;;;1.90;1.70;;;;;;;14.86;71.52;99359.72;5036630;28;20680;-77
2023/09/20 02:23:03;;;;;;;4.32;1.90;;;;;;;14.81;71.70;99349.53;5034870;28;20197;-77
2023/09/20 02:25:29;;;;;;;2.65;1.42;;;;;;;14.83;71.69;99355.53;5030180;28;20209;-78
2023/09/20 02:28:02;;;;;;;4.57;1.92;;;;;;;14.83;71.84;99353.72;5040781;28;20207;-77
2023/09/20 02:30:28;;;;;;;1.83;1.65;;;;;;;14.79;72.03;99352.28;5042878;28;20219;-78
2023/09/20 02:32:59;;;;;;;2.10;1.52;;;;;;;14.73;71.92;99352.81;5022034;28;20213;-77
2023/09/20 02:35:25;;;;;;;4.15;3.10;;;;;;;14.71;71.92;99346.00;5033799;28;20205;-77
2023/09/20 02:37:53;;;;;;;3.08;2.05;;;;;;;14.67;71.86;99350.72;5017862;28;20221;-78
2023/09/20 02:40:23;;;;;;;2.85;1.77;;;;;;;14.66;72.08;99349.00;5020650;28;20205;-77
2023/09/20 02:42:52;;;;;;;1.77;1.60;;;;;;;14.67;71.96;99356.00;5038204;28;20556;-77
2023/09/20 02:45:22;;;;;;;2.55;1.83;;;;;;;14.69;72.11;99364.66;5020044;28;20302;-77
2023/09/20 02:47:48;;;;;;;2.05;1.60;;;;;;;14.74;71.75;99361.59;5031015;28;20267;-77
2023/09/20 02:50:18;;;;;;;5.15;1.95;;;;;;;14.74;71.70;99357.16;5018192;28;20212;-77
2023/09/20 02:52:48;;;;;;;2.88;1.60;;;;;;;14.74;71.77;99351.88;5030019;28;20586;-78
2023/09/20 02:55:17;;;;;;;2.17;1.55;;;;;;;14.74;71.60;99351.88;5026259;28;20205;-78
2023/09/20 02:57:44;;;;;;;4.28;2.03;;;;;;;14.76;71.72;99349.91;5030620;28;20201;-78
2023/09/20 03:00:15;;;;;;;3.50;2.22;;;;;;;14.81;71.65;99350.38;5021046;28;20693;-77
2023/09/20 03:02:45;;;;;;;4.65;2.53;;;;;;;14.82;71.46;99340.63;5019865;28;20522;-76
2023/09/20 03:05:21;;;;;;;2.67;1.90;;;;;;;14.81;71.59;99346.88;5017551;28;20259;-77
2023/09/20 03:07:49;;;;;;;1.80;1.50;;;;;;;14.77;71.52;99341.03;5016314;28;20306;-78
2023/09/20 03:10:19;;;;;;;2.05;1.38;;;;;;;14.74;71.67;99341.31;5034238;28;20242;-78
2023/09/20 03:12:46;;;;;;;3.75;1.80;;;;;;;14.76;71.52;99333.22;5021236;28;21063;-78
2023/09/20 03:15:17;;;;;;;7.40;2.38;;;;;;;14.73;71.75;99334.31;5024097;28;20213;-77
2023/09/20 03:17:47;;;;;;;1.60;1.50;;;;;;;14.70;71.62;99334.59;5022041;28;20193;-78
2023/09/20 03:20:22;;;;;;;4.60;1.75;;;;;;;14.66;71.58;99335.78;5023447;28;20694;-77
2023/09/20 03:22:51;;;;;;;3.03;1.65;;;;;;;14.64;71.84;99331.63;5032446;28;20205;-78
2023/09/20 03:25:21;;;;;;;1.25;1.15;;;;;;;14.60;71.83;99331.88;5020263;28;20640;-77
2023/09/20 03:27:48;;;;;;;2.40;2.00;;;;;;;14.62;71.99;99328.28;5027314;28;20260;-78
2023/09/20 03:30:20;;;;;;;4.45;2.20;;;;;;;14.60;71.88;99334.50;5021165;28;20222;-78
2023/09/20 03:32:49;;;;;;;2.85;1.90;;;;;;;14.57;72.09;99329.50;5033714;28;20297;-77
2023/09/20 03:35:19;;;;;;;2.47;1.73;;;;;;;14.54;72.04;99326.28;5038348;28;20204;-77
2023/09/20 03:37:46;;;;;;;2.45;1.55;;;;;;;14.50;71.98;99322.16;5018856;28;20235;-77
2023/09/20 03:40:21;;;;;;;3.10;1.80;;;;;;;14.47;72.21;99323.28;5025017;28;20689;-77
2023/09/20 03:42:48;;;;;;;4.72;1.80;;;;;;;14.44;72.30;99318.25;5021427;28;20682;-77
2023/09/20 03:45:16;;;;;;;2.25;1.67;;;;;;;14.41;72.43;99317.69;5029400;28;20682;-77
2023/09/20 03:47:45;;;;;;;3.13;2.45;;;;;;;14.37;72.34;99317.94;5038944;28;20292;-78
2023/09/20 03:50:12;;;;;;;4.60;1.52;;;;;;;14.35;72.45;99306.66;5019581;28;20206;-77
2023/09/20 03:52:38;;;;;;;3.85;1.60;;;;;;;14.33;72.36;99311.22;5017903;28;20348;-78
2023/09/20 03:55:07;;;;;;;2.22;1.60;;;;;;;14.30;72.35;99314.13;5040094;28;20245;-78
2023/09/20 03:57:34;;;;;;;1.80;1.70;;;;;;;14.29;72.53;99323.03;5037615;28;20681;-77
2023/09/20 04:00:02;;;;;;;1.70;1.60;;;;;;;14.29;72.73;99317.75;5035554;28;20202;-78
2023/09/20 04:02:38;;;;;;;10.65;1.80;;;;;;;14.29;72.70;99315.09;5041547;28;20671;-77
2023/09/20 04:05:13;;;;;;;2.90;1.80;;;;;;;14.28;72.51;99316.03;5022458;28;20323;-77
2023/09/20 04:07:40;;;;;;;2.67;2.20;;;;;;;14.32;73.05;99314.84;5024420;28;20467;-77
2023/09/20 04:10:08;;;;;;;4.95;2.10;;;;;;;14.33;73.19;99305.94;5035334;28;20206;-77
2023/09/20 04:12:35;;;;;;;3.92;2.30;;;;;;;14.32;73.17;99309.56;5042596;28;20304;-78
2023/09/20 04:15:03;;;;;;;5.20;3.08;;;;;;;14.33;72.96;99305.09;5042188;28;20214;-77
2023/09/20 04:17:29;;;;;;;3.60;2.33;;;;;;;14.33;72.70;99303.28;5040707;28;20201;-77
2023/09/20 04:19:55;;;;;;;3.47;1.93;;;;;;;14.35;72.81;99305.81;5031607;28;20633;-77
2023/09/20 04:22:20;;;;;;;3.00;1.97;;;;;;;14.35;72.72;99303.19;5030639;28;20202;-77
2023/09/20 04:24:45;;;;;;;2.57;1.80;;;;;;;14.33;72.66;99307.75;5042067;28;20610;-77
2023/09/20 04:27:11;;;;;;;3.70;2.57;;;;;;;14.28;72.78;99294.09;5043927;28;20741;-78
2023/09/20 04:29:36;;;;;;;4.87;3.13;;;;;;;14.22;72.95;99295.44;5025981;28;20874;-78
2023/09/20 04:32:02;;;;;;;5.27;2.90;;;;;;;14.24;72.99;99297.97;5041895;28;20201;-78
2023/09/20 04:34:29;;;;;;;3.80;2.50;;;;;;;14.25;72.80;99292.53;5021752;28;20204;-78
2023/09/20 04:36:56;;;;;;;3.95;2.50;;;;;;;14.25;72.81;99286.41;5045761;28;20243;-77
2023/09/20 04:39:24;;;;;;;4.95;2.55;;;;;;;14.26;72.72;99288.94;5019487;28;20516;-77
2023/09/20 04:41:51;;;;;;;2.58;2.35;;;;;;;14.27;72.81;99287.97;5038363;28;20198;-78
2023/09/20 04:44:16;;;;;;;4.13;3.13;;;;;;;14.27;72.75;99285.31;5032024;28;20201;-77
2023/09/20 04:46:43;;;;;;;4.03;2.90;;;;;;;14.26;72.49;99285.47;5039310;28;20190;-77
2023/09/20 04:49:10;;;;;;;3.07;2.57;;;;;;;14.25;72.84;99284.59;5024371;28;20599;-78
2023/09/20 04:51:37;;;;;;;5.03;3.25;;;;;;;14.25;72.68;99273.22;5023095;28;20448;-77
2023/09/20 04:54:07;;;;;;;2.88;2.45;;;;;;;14.27;72.79;99279.22;5024298;28;20743;-77
2023/09/20 04:56:33;;;;;;;4.25;2.30;;;;;;;14.28;72.62;99284.34;5041718;28;20359;-78
2023/09/20 04:58:58;;;;;;;4.40;3.30;;;;;;;14.29;72.62;99277.28;5022870;28;20285;-77
2023/09/20 05:01:24;;;;;;;3.40;2.43;;;;;;;14.28;72.68;99281.69;5023421;28;20194;-77
2023/09/20 05:03:50;;;;;;;3.10;2.80;;;;;;;14.28;72.54;99284.34;5026089;28;20186;-77
2023/09/20 05:06:18;;;;;;;4.00;2.28;;;;;;;14.25;72.74;99271.41;5031090;28;20489;-78
2023/09/20 05:08:43;;;;;;;4.38;2.85;;;;;;;14.26;72.78;99266.97;5038566;28;20292;-77
2023/09/20 05:11:13;;;;;;;18.63;2.87;;;;;;;14.26;72.52;99267.81;5007047;28;20289;-77
2023/09/20 05:13:40;;;;;;;4.60;3.03;;;;;;;14.28;72.68;99273.78;5020784;28;21300;-78
2023/09/20 05:16:07;;;;;;;4.55;2.97;;;;;;;14.29;72.62;99278.13;5037385;28;20885;-77
2023/09/20 05:18:32;;;;;;;6.27;2.80;;;;;;;14.32;72.53;99279.66;5022633;28;20904;-77
2023/09/20 05:20:58;;;;;;;3.17;2.58;;;;;;;14.34;72.63;99283.84;5027692;28;20711;-77
2023/09/20 05:23:24;;;;;;;3.40;2.73;;;;;;;14.35;72.33;99269.66;5017921;28;20186;-77
2023/09/20 05:25:50;;;;;;;3.60;2.80;;;;;;;14.37;72.32;99278.31;5038684;28;20202;-78
2023/09/20 05:28:16;;;;;;;3.78;2.80;;;;;;;14.37;72.34;99278.31;5039127;28;20521;-77
2023/09/20 05:30:46;;;;;;;3.60;2.70;;;;;;;14.33;72.39;99281.31;5030824;28;20636;-78
2023/09/20 05:33:12;;;;;;;3.45;2.05;;;;;;;14.28;72.60;99279.06;5032809;28;20237;-78
2023/09/20 05:35:43;;;;;;;2.92;2.58;;;;;;;14.25;72.66;99276.69;5038700;28;20428;-77
2023/09/20 05:38:09;;;;;;;2.78;2.53;;;;;;;14.27;72.65;99284.50;5035633;28;20551;-77
2023/09/20 05:40:35;;;;;;;2.75;2.08;;;;;;;14.31;72.59;99278.84;5038008;28;20712;-77
2023/09/20 05:43:03;;;;;;;3.90;2.70;;;;;;;14.37;72.41;99282.75;5034130;28;20189;-77
2023/09/20 05:45:32;;;;;;;3.33;2.60;;;;;;;14.43;72.33;99284.03;5033228;28;20189;-77
2023/09/20 05:48:04;;;;;;;2.53;2.30;;;;;;;14.51;72.25;99281.59;5036392;28;20221;-77
2023/09/20 05:50:35;;;;;;;2.70;1.92;;;;;;;14.57;71.99;99279.28;5039033;28;20259;-78
2023/09/20 05:53:01;;;;;;;3.17;2.88;;;;;;;14.65;72.01;99277.78;5038518;28;20256;-77
2023/09/20 05:55:31;;;;;;;3.80;2.92;;;;;;;14.71;71.78;99272.78;5028725;28;20217;-77
2023/09/20 05:57:57;;;;;;;5.13;3.53;;;;;;;14.80;71.69;99266.72;5037132;28;20691;-78
2023/09/20 06:00:22;;;;;;;7.80;2.40;;;;;;;14.90;71.31;99256.19;5016612;28;20678;-78
2023/09/20 06:02:51;;;;;;;3.13;2.80;;;;;;;15.00;71.10;99259.69;5031581;28;20277;-78
2023/09/20 06:05:24;;;;;;;3.38;2.10;;;;;;;15.12;70.85;99255.16;5033799;28;20609;-78
2023/09/20 06:07:51;;;;;;;11.57;2.45;;;;;;;15.18;70.88;99251.13;5039778;28;20196;-78
2023/09/20 06:10:18;;;;;;;4.38;2.45;;;;;;;15.22;70.83;99256.00;5032193;28;20233;-78
2023/09/20 06:12:47;;;;;;;2.65;2.03;;;;;;;15.26;70.97;99251.28;5038562;28;20244;-78
2023/09/20 06:15:15;;;;;;;6.50;2.55;;;;;;;15.30;70.95;99252.66;5035094;28;20215;-78
2023/09/20 06:17:42;;;;;;;3.08;2.65;;;;;;;15.36;70.79;99249.47;5035282;28;20274;-78
2023/09/20 06:20:12;;;;;;;7.22;3.00;;;;;;;15.45;70.50;99250.47;5032540;28;20218;-78
2023/09/20 06:22:41;;;;;;;4.20;1.80;;;;;;;15.53;70.38;99258.56;5036463;28;20236;-78
2023/09/20 06:25:06;;;;;;;2.97;2.40;;;;;;;15.61;70.40;99249.94;5031495;28;20197;-79
2023/09/20 06:27:33;;;;;;;2.90;2.27;;;;;;;15.73;70.19;99242.72;5037821;28;20208;-78
2023/09/20 06:29:59;;;;;;;4.40;2.25;;;;;;;15.87;69.83;99231.69;5034324;28;20271;-78
2023/09/20 06:32:24;;;;;;;2.50;2.30;;;;;;;16.03;69.58;99234.59;5035191;28;20226;-78
2023/09/20 06:34:50;;;;;;;2.53;1.83;;;;;;;16.21;69.21;99234.72;5039627;28;20772;-78
2023/09/20 06:37:16;;;;;;;5.97;2.20;;;;;;;16.40;68.96;99227.72;5035476;28;20442;-78
2023/09/20 06:39:44;;;;;;;4.20;2.30;;;;;;;16.57;68.25;99227.78;5035640;28;20253;-78
2023/09/20 06:42:13;;;;;;;1.87;1.77;;;;;;;16.75;67.68;99229.66;5030922;28;20565;-79
2023/09/20 06:44:38;;;;;;;3.15;1.83;;;;;;;16.89;66.84;99231.88;5040452;28;20941;-78
2023/09/20 06:47:08;;;;;;;3.70;1.83;;;;;;;17.00;66.50;99234.31;5041217;28;20201;-78
2023/09/20 06:49:34;;;;;;;5.35;1.80;;;;;;;17.14;65.92;99230.31;5035742;28;20211;-78
2023/09/20 06:52:03;;;;;;;2.27;2.07;;;;;;;17.28;65.61;99231.63;5034019;28;20303;-79
2023/09/20 06:54:29;;;;;;;1.83;1.63;;;;;;;17.40;65.21;99230.44;5031406;28;21156;-79
2023/09/20 06:57:02;;;;;;;3.13;1.80;;;;;;;17.53;64.79;99231.91;5038848;28;20749;-79
2023/09/20 06:59:32;;;;;;;1.83;1.60;;;;;;;17.63;64.58;99222.88;5037065;28;20462;-79
2023/09/20 07:02:01;;;;;;;3.90;2.17;;;;;;;17.72;64.32;99225.59;5035417;28;20446;-79
2023/09/20 07:04:27;;;;;;;2.70;1.83;;;;;;;17.78;64.17;99228.47;5034309;28;20999;-79
2023/09/20 07:06:54;;;;;;;4.32;2.20;;;;;;;17.87;63.98;99222.25;5033609;28;20529;-78
2023/09/20 07:09:19;;;;;;;2.23;1.63;;;;;;;17.96;63.71;99211.69;5042146;28;20209;-79
2023/09/20 07:11:46;;;;;;;2.73;1.90;;;;;;;18.05;63.29;99216.09;5046869;28;20491;-79
2023/09/20 07:14:13;;;;;;;2.20;1.37;;;;;;;18.12;63.00;99215.31;5046872;28;20220;-79
2023/09/20 07:16:39;;;;;;;3.90;1.90;;;;;;;18.19;62.94;99209.38;5046022;28;20806;-80
2023/09/20 07:19:05;;;;;;;1.90;1.60;;;;;;;18.28;62.57;99217.25;5045705;28;20949;-79
2023/09/20 07:21:37;;;;;;;4.37;2.00;;;;;;;18.34;62.45;99213.13;5041029;28;20551;-79
2023/09/20 07:24:03;;;;;;;5.73;1.80;;;;;;;18.40;62.14;99217.81;5036861;28;20527;-79
2023/09/20 07:26:29;;;;;;;3.00;1.93;;;;;;;18.46;62.22;99213.69;5037735;28;20513;-78
2023/09/20 07:28:55;;;;;;;3.83;1.90;;;;;;;18.52;62.07;99210.41;5039711;28;20507;-79
2023/09/20 07:31:20;;;;;;;3.60;1.80;;;;;;;18.57;61.78;99213.41;5036694;28;20537;-79
2023/09/20 07:33:46;;;;;;;3.00;1.97;;;;;;;18.65;61.62;99215.28;5039221;28;20190;-79
2023/09/20 07:36:11;;;;;;;3.78;2.00;;;;;;;18.71;61.40;99210.19;5039090;28;20587;-79
2023/09/20 07:38:37;;;;;;;2.40;1.60;;;;;;;18.78;61.12;99211.22;5039028;28;20196;-80
2023/09/20 07:41:13;;;;;;;2.57;1.80;;;;;;;18.86;61.10;99204.28;5037652;28;20569;-79
2023/09/20 07:43:39;;;;;;;2.80;1.43;;;;;;;19.23;60.43;99204.72;5041875;28;20287;-79
2023/09/20 07:46:07;;;;;;;2.63;1.57;;;;;;;20.15;58.46;99211.81;5036747;28;20463;-79
2023/09/20 07:48:34;;;;;;;4.80;1.63;;;;;;;21.33;55.57;99203.84;5035848;28;20473;-80
2023/09/20 07:50:59;;;;;;;2.57;1.50;;;;;;;22.49;52.69;99203.59;5040913;28;20444;-79
2023/09/20 07:53:26;;;;;;;2.50;1.40;;;;;;;23.52;49.99;99196.41;5031944;28;20471;-79
2023/09/20 07:56:05;;;;;;;3.00;1.73;;;;;;;24.33;47.93;99190.69;5039493;28;20239;-80
2023/09/20 07:58:36;;;;;;;2.70;1.60;;;;;;;25.01;46.31;99195.41;5037094;28;20423;-80
2023/09/20 08:01:10;;;;;;;4.97;2.13;;;;;;;25.56;44.78;99190.81;5041772;28;20479;-80
2023/09/20 08:03:35;;;;;;;1.93;1.40;;;;;;;26.26;43.70;99185.84;5038610;28;20434;-80
2023/09/20 08:06:08;;;;;;;3.90;1.73;;;;;;;26.84;42.41;99187.78;5036813;28;20795;-80
2023/09/20 08:08:35;;;;;;;3.10;2.40;;;;;;;27.48;40.80;99188.75;5036973;28;20204;-80
2023/09/20 08:11:00;;;;;;;3.30;1.37;;;;;;;28.01;nan;99181.09;5041152;28;20809;-83
2023/09/20 08:13:26;;;;;;;2.37;1.57;;;;;;;28.48;nan;99182.53;5022195;28;20466;-80
2023/09/20 08:15:51;;;;;;;2.27;1.60;;;;;;;28.65;nan;99176.31;5041103;28;20640;-82
2023/09/20 08:21:03;;;;;;;1.43;1.33;;;;;;;28.99;nan;99175.91;5042424;28;20209;-84
2023/09/20 09:02:01;;;;;;;2.97;1.40;;;;;;;30.54;nan;99152.41;5045864;28;21053;-81
2023/09/20 09:04:27;;;;;;;2.90;1.63;;;;;;;30.24;nan;99153.38;5049443;28;20538;-81
2023/09/20 09:06:53;;;;;;;2.07;1.37;;;;;;;29.88;nan;99149.84;5044284;28;20841;-81
2023/09/20 09:09:19;;;;;;;1.87;1.30;;;;;;;29.43;nan;99146.78;5020445;28;20459;-80
2023/09/20 09:11:45;;;;;;;2.40;1.70;;;;;;;28.87;nan;99146.94;5047985;28;20255;-80
2023/09/20 09:14:13;;;;;;;1.47;1.37;;;;;;;28.28;nan;99147.63;5045843;28;20201;-80
2023/09/20 09:16:39;;;;;;;1.73;1.33;;;;;;;27.77;nan;99144.94;5048415;28;20864;-80
2023/09/20 09:19:04;;;;;;;2.63;1.60;;;;;;;27.43;nan;99146.22;5046383;28;21091;-80
2023/09/20 09:21:30;;;;;;;2.30;1.80;;;;;;;27.15;nan;99152.81;5049337;28;20470;-80
2023/09/20 09:23:57;;;;;;;1.33;1.23;;;;;;;26.80;nan;99156.94;5033156;28;20190;-80
2023/09/20 09:26:24;;;;;;;1.50;1.20;;;;;;;26.59;nan;99147.28;5049685;28;20840;-79
2023/09/20 09:28:50;;;;;;;1.70;1.47;;;;;;;26.54;nan;99145.22;5047277;28;20492;-80
2023/09/20 09:31:16;;;;;;;2.80;1.87;;;;;;;26.57;nan;99139.41;5046809;28;20460;-80
2023/09/20 09:33:42;;;;;;;2.33;1.93;;;;;;;26.61;nan;99139.81;5047626;28;20206;-80
2023/09/20 09:36:08;;;;;;;1.40;1.27;;;;;;;26.49;nan;99132.38;5046540;28;20489;-83
2023/09/20 09:38:34;;;;;;;2.20;1.73;;;;;;;26.41;nan;99129.91;5019981;28;20197;-80
2023/09/20 09:41:02;;;;;;;2.73;1.53;;;;;;;26.49;nan;99135.06;5044280;28;20547;-78
2023/09/20 09:43:29;;;;;;;1.57;1.03;;;;;;;26.56;nan;99134.22;5046437;28;20628;-79
2023/09/20 09:46:03;;;;;;;7.80;3.30;;;;;;;26.47;nan;99134.44;5046119;28;20436;-81
2023/09/20 09:48:32;;;;;;;2.50;2.00;;;;;;;26.34;nan;99137.16;5040145;28;20879;-79
2023/09/20 09:51:01;;;;;;;2.57;1.30;;;;;;;26.26;nan;99126.63;5046570;28;20466;-79
2023/09/20 09:53:31;;;;;;;1.50;1.40;;;;;;;26.39;nan;99120.38;5043295;28;20984;-86
2023/09/20 09:55:59;;;;;;;1.50;1.30;;;;;;;26.57;nan;99117.88;5045032;28;20639;-83
2023/09/20 09:58:25;;;;;;;1.20;1.10;;;;;;;26.69;nan;99118.84;5042191;28;20473;-79
2023/09/20 10:00:53;;;;;;;2.40;1.30;;;;;;;26.75;nan;99110.94;5046970;28;20459;-83
2023/09/20 10:03:29;;;;;;;1.30;1.10;;;;;;;26.74;nan;99120.09;5045321;28;20739;-80
2023/09/20 10:06:25;;;;;;;1.90;1.42;;;;;;;26.70;nan;99114.28;5042890;28;20438;-80
2023/09/20 10:08:53;;;;;;;1.40;1.30;;;;;;;26.65;nan;99109.56;5040969;28;20674;-79
2023/09/20 10:11:22;;;;;;;2.47;1.60;;;;;;;26.72;nan;99109.50;5045023;28;20923;-80
2023/09/20 10:13:50;;;;;;;2.63;1.40;;;;;;;26.83;nan;99097.22;5043761;28;20854;-80
2023/09/20 10:16:17;;;;;;;3.00;1.80;;;;;;;26.79;nan;99101.38;5042047;28;20451;-80
2023/09/20 10:18:51;;;;;;;1.80;1.50;;;;;;;26.76;nan;99097.28;5045187;28;20455;-79
2023/09/20 10:21:22;;;;;;;1.70;1.40;;;;;;;26.69;nan;99096.47;5045117;28;20466;-79
2023/09/20 10:23:48;;;;;;;1.80;1.37;;;;;;;26.54;nan;99094.03;5043041;28;20473;-85
2023/09/20 10:26:15;;;;;;;3.60;1.33;;;;;;;26.44;nan;99077.50;5043373;28;20468;-83
2023/09/20 10:28:44;;;;;;;2.27;1.63;;;;;;;26.44;nan;99072.09;5043825;28;20496;-81
2023/09/20 10:31:14;;;;;;;1.77;1.30;;;;;;;26.35;nan;99073.38;5047674;28;20630;-84
2023/09/20 10:33:45;;;;;;;1.67;1.40;;;;;;;26.39;nan;99066.53;5046823;28;20497;-82
2023/09/20 10:36:20;;;;;;;2.13;1.97;;;;;;;26.47;nan;99063.59;5046548;28;20772;-84
2023/09/20 10:38:47;;;;;;;1.77;1.63;;;;;;;26.57;nan;99057.75;5045023;28;20543;-79
2023/09/20 10:41:14;;;;;;;1.93;1.40;;;;;;;26.74;nan;99055.41;5043215;28;20608;-84
2023/09/20 10:43:41;;;;;;;2.50;1.30;;;;;;;26.85;nan;99052.84;5045676;28;20991;-79
2023/09/20 10:46:07;;;;;;;2.00;1.70;;;;;;;26.89;nan;99053.22;5047461;28;20444;-81
2023/09/20 10:48:33;;;;;;;2.43;1.27;;;;;;;26.99;nan;99052.75;5049254;28;20706;-81
2023/09/20 10:50:59;;;;;;;1.30;1.20;;;;;;;27.04;nan;99044.84;5043654;28;20979;-82
2023/09/20 10:53:52;;;;;;;1.80;1.50;;;;;;;27.14;nan;99040.63;5037582;28;20693;-79
2023/09/20 10:56:45;;;;;;;2.20;1.43;;;;;;;27.20;nan;99032.75;5043773;28;21063;-83
2023/09/20 10:59:21;;;;;;;1.23;1.00;;;;;;;27.25;nan;99025.66;5040660;28;20460;-79
2023/09/20 11:02:05;;;;;;;2.07;1.17;;;;;;;27.20;nan;99025.47;5040945;28;20512;-79
2023/09/20 11:04:31;;;;;;;2.77;1.30;;;;;;;27.17;nan;99017.84;5040657;28;20454;-79
2023/09/20 11:07:02;;;;;;;2.03;1.43;;;;;;;27.17;nan;99012.44;5042966;28;20440;-79
2023/09/20 11:09:31;;;;;;;1.77;1.43;;;;;;;27.25;nan;99000.56;5042009;28;20496;-79
2023/09/20 11:12:06;;;;;;;1.43;1.33;;;;;;;27.27;nan;99001.13;5040476;28;20447;-82
2023/09/20 11:14:36;;;;;;;2.53;1.47;;;;;;;27.29;nan;99004.44;5042172;28;21107;-79
2023/09/20 11:17:05;;;;;;;2.60;1.70;;;;;;;27.30;nan;99003.38;5048613;28;20789;-80
2023/09/20 11:19:31;;;;;;;2.47;1.40;;;;;;;27.31;nan;99003.19;5043293;28;20495;-80
2023/09/20 11:21:57;;;;;;;3.67;1.47;;;;;;;27.35;nan;99003.56;5042424;28;20462;-80
2023/09/20 11:24:24;;;;;;;3.30;1.93;;;;;;;27.34;nan;98997.34;5040566;28;20455;-79
2023/09/20 11:26:55;;;;;;;1.50;1.33;;;;;;;27.28;nan;98979.34;5047354;28;20618;-84
2023/09/20 11:29:21;;;;;;;2.60;1.80;;;;;;;27.28;nan;98986.63;5044431;28;20530;-82
2023/09/20 11:31:48;;;;;;;2.70;1.23;;;;;;;27.30;nan;98984.50;5050576;28;20469;-82
2023/09/20 11:34:14;;;;;;;3.07;1.60;;;;;;;27.26;nan;98984.13;5045464;28;20490;-83
2023/09/20 11:36:43;;;;;;;2.57;1.40;;;;;;;27.29;nan;98988.28;5044280;28;20463;-79
2023/09/20 11:39:09;;;;;;;1.70;1.50;;;;;;;27.26;nan;98983.31;5040380;28;20192;-85
2023/09/20 11:41:37;;;;;;;2.07;1.50;;;;;;;27.25;nan;98979.00;5042008;28;20895;-81
2023/09/20 11:44:06;;;;;;;1.67;1.10;;;;;;;27.25;nan;98970.91;5038261;28;20185;-79
2023/09/20 11:46:35;;;;;;;1.73;1.63;;;;;;;27.33;nan;98976.00;5047066;28;20738;-79
2023/09/20 11:49:03;;;;;;;1.50;1.30;;;;;;;27.42;nan;98982.75;5043200;28;20454;-79
2023/09/20 11:51:30;;;;;;;7.10;1.67;;;;;;;27.46;nan;98972.34;5037963;28;20447;-79
2023/09/20 11:53:56;;;;;;;1.57;1.20;;;;;;;27.42;nan;98973.84;5039018;28;20525;-85
2023/09/20 11:56:26;;;;;;;2.70;1.13;;;;;;;27.41;nan;98964.94;5044411;28;20454;-80
2023/09/20 11:58:54;;;;;;;2.37;1.53;;;;;;;27.40;nan;98957.88;5048881;28;20447;-80
2023/09/20 12:01:24;;;;;;;1.63;1.40;;;;;;;27.35;nan;98947.78;5042891;28;20471;-83
2023/09/20 12:03:51;;;;;;;1.17;1.03;;;;;;;27.30;nan;98952.16;5044454;28;20960;-79
2023/09/20 12:06:21;;;;;;;1.40;1.07;;;;;;;27.33;nan;98949.84;5050387;28;20431;-80
2023/09/20 12:08:46;;;;;;;1.60;1.23;;;;;;;27.40;nan;98944.38;5042470;28;20447;-79
2023/09/20 12:11:12;;;;;;;4.73;1.10;;;;;;;27.51;nan;98940.13;5042278;28;20832;-79
2023/09/20 12:13:38;;;;;;;2.83;1.27;;;;;;;27.50;nan;98933.09;5043496;28;20216;-80
2023/09/20 12:16:03;;;;;;;2.60;1.27;;;;;;;27.45;nan;98924.84;5042766;28;20194;-82
2023/09/20 12:18:29;;;;;;;1.90;1.30;;;;;;;27.46;nan;98923.78;5044602;28;20367;-80
2023/09/20 12:20:55;;;;;;;1.17;1.00;;;;;;;27.47;nan;98926.28;5046349;28;20209;-79
2023/09/20 12:23:20;;;;;;;1.43;1.10;;;;;;;27.50;nan;98915.03;5044298;28;20220;-81